sensor_id;sensor_type;location;lat;lon;timestamp;pressure;altitude;pressure_sealevel;temperature
12061;BMP180;6091;51.432;6.880;2023-05-07T00:02:26;100877.00;;;26.20
12061;BMP180;6091;51.432;6.880;2023-05-07T00:04:53;100873.00;;;26.20
12061;BMP180;6091;51.432;6.880;2023-05-07T00:07:21;100880.00;;;26.20
12061;BMP180;6091;51.432;6.880;2023-05-07T00:09:49;100876.00;;;26.20
12061;BMP180;6091;51.432;6.880;2023-05-07T00:12:17;100878.00;;;26.20
12061;BMP180;6091;51.432;6.880;2023-05-07T00:14:44;100881.00;;;26.20
12061;BMP180;6091;51.432;6.880;2023-05-07T00:17:13;100876.00;;;26.10
12061;BMP180;6091;51.432;6.880;2023-05-07T00:19:41;100872.00;;;26.10
12061;BMP180;6091;51.432;6.880;2023-05-07T00:22:09;100876.00;;;26.20
12061;BMP180;6091;51.432;6.880;2023-05-07T00:24:39;100869.00;;;26.20
12061;BMP180;6091;51.432;6.880;2023-05-07T00:27:06;100869.00;;;26.10
12061;BMP180;6091;51.432;6.880;2023-05-07T00:29:34;100859.00;;;26.10
12061;BMP180;6091;51.432;6.880;2023-05-07T00:32:01;100857.00;;;26.10
12061;BMP180;6091;51.432;6.880;2023-05-07T00:34:32;100856.00;;;26.10
12061;BMP180;6091;51.432;6.880;2023-05-07T00:37:05;100847.00;;;26.10
12061;BMP180;6091;51.432;6.880;2023-05-07T00:39:36;100850.00;;;26.10
12061;BMP180;6091;51.432;6.880;2023-05-07T00:42:04;100854.00;;;26.10
12061;BMP180;6091;51.432;6.880;2023-05-07T00:44:35;100848.00;;;26.10
12061;BMP180;6091;51.432;6.880;2023-05-07T00:47:04;100847.00;;;26.10
12061;BMP180;6091;51.432;6.880;2023-05-07T00:49:39;100848.00;;;26.10
12061;BMP180;6091;51.432;6.880;2023-05-07T00:52:13;100839.00;;;26.10
12061;BMP180;6091;51.432;6.880;2023-05-07T00:54:41;100847.00;;;26.10
12061;BMP180;6091;51.432;6.880;2023-05-07T00:57:17;100835.00;;;26.10
12061;BMP180;6091;51.432;6.880;2023-05-07T00:59:44;100847.00;;;26.10
12061;BMP180;6091;51.432;6.880;2023-05-07T01:02:11;100850.00;;;26.10
12061;BMP180;6091;51.432;6.880;2023-05-07T01:04:39;100847.00;;;26.10
12061;BMP180;6091;51.432;6.880;2023-05-07T01:07:11;100856.00;;;26.10
12061;BMP180;6091;51.432;6.880;2023-05-07T01:09:39;100844.00;;;26.10
12061;BMP180;6091;51.432;6.880;2023-05-07T01:12:08;100839.00;;;26.10
12061;BMP180;6091;51.432;6.880;2023-05-07T01:14:36;100838.00;;;26.10
12061;BMP180;6091;51.432;6.880;2023-05-07T01:17:03;100836.00;;;26.10
12061;BMP180;6091;51.432;6.880;2023-05-07T01:19:31;100832.00;;;26.10
12061;BMP180;6091;51.432;6.880;2023-05-07T01:22:09;100844.00;;;26.10
12061;BMP180;6091;51.432;6.880;2023-05-07T01:24:38;100839.00;;;26.00
12061;BMP180;6091;51.432;6.880;2023-05-07T01:27:05;100849.00;;;26.00
12061;BMP180;6091;51.432;6.880;2023-05-07T01:29:32;100843.00;;;26.00
12061;BMP180;6091;51.432;6.880;2023-05-07T01:32:00;100844.00;;;26.00
12061;BMP180;6091;51.432;6.880;2023-05-07T01:34:32;100825.00;;;26.00
12061;BMP180;6091;51.432;6.880;2023-05-07T01:37:02;100831.00;;;26.00
12061;BMP180;6091;51.432;6.880;2023-05-07T01:39:31;100837.00;;;26.00
12061;BMP180;6091;51.432;6.880;2023-05-07T01:41:59;100830.00;;;26.00
12061;BMP180;6091;51.432;6.880;2023-05-07T01:44:27;100836.00;;;26.00
12061;BMP180;6091;51.432;6.880;2023-05-07T01:47:00;100831.00;;;26.00
12061;BMP180;6091;51.432;6.880;2023-05-07T01:49:31;100830.00;;;26.00
12061;BMP180;6091;51.432;6.880;2023-05-07T01:51:59;100837.00;;;26.00
12061;BMP180;6091;51.432;6.880;2023-05-07T01:54:29;100837.00;;;26.00
12061;BMP180;6091;51.432;6.880;2023-05-07T01:56:57;100827.00;;;26.00
12061;BMP180;6091;51.432;6.880;2023-05-07T01:59:24;100838.00;;;26.00
12061;BMP180;6091;51.432;6.880;2023-05-07T02:01:52;100846.00;;;26.00
12061;BMP180;6091;51.432;6.880;2023-05-07T02:04:26;100832.00;;;26.00
12061;BMP180;6091;51.432;6.880;2023-05-07T02:06:59;100837.00;;;26.00
12061;BMP180;6091;51.432;6.880;2023-05-07T02:09:32;100837.00;;;26.00
12061;BMP180;6091;51.432;6.880;2023-05-07T02:11:59;100845.00;;;26.00
12061;BMP180;6091;51.432;6.880;2023-05-07T02:14:26;100832.00;;;26.00
12061;BMP180;6091;51.432;6.880;2023-05-07T02:16:56;100830.00;;;26.00
12061;BMP180;6091;51.432;6.880;2023-05-07T02:19:23;100821.00;;;26.00
12061;BMP180;6091;51.432;6.880;2023-05-07T02:21:51;100833.00;;;26.00
12061;BMP180;6091;51.432;6.880;2023-05-07T02:24:18;100830.00;;;26.00
12061;BMP180;6091;51.432;6.880;2023-05-07T02:26:45;100828.00;;;26.00
12061;BMP180;6091;51.432;6.880;2023-05-07T02:29:12;100834.00;;;26.00
12061;BMP180;6091;51.432;6.880;2023-05-07T02:31:39;100829.00;;;26.00
12061;BMP180;6091;51.432;6.880;2023-05-07T02:34:09;100824.00;;;26.00
12061;BMP180;6091;51.432;6.880;2023-05-07T02:36:37;100822.00;;;26.00
12061;BMP180;6091;51.432;6.880;2023-05-07T02:39:05;100825.00;;;25.90
12061;BMP180;6091;51.432;6.880;2023-05-07T02:41:33;100827.00;;;26.00
12061;BMP180;6091;51.432;6.880;2023-05-07T02:44:00;100829.00;;;26.00
12061;BMP180;6091;51.432;6.880;2023-05-07T02:46:28;100829.00;;;26.00
12061;BMP180;6091;51.432;6.880;2023-05-07T02:48:58;100834.00;;;25.90
12061;BMP180;6091;51.432;6.880;2023-05-07T02:51:26;100823.00;;;25.90
12061;BMP180;6091;51.432;6.880;2023-05-07T02:53:58;100826.00;;;25.90
12061;BMP180;6091;51.432;6.880;2023-05-07T02:56:27;100819.00;;;25.90
12061;BMP180;6091;51.432;6.880;2023-05-07T02:58:55;100820.00;;;25.90
12061;BMP180;6091;51.432;6.880;2023-05-07T03:01:24;100821.00;;;25.90
12061;BMP180;6091;51.432;6.880;2023-05-07T03:03:53;100828.00;;;25.90
12061;BMP180;6091;51.432;6.880;2023-05-07T03:06:20;100831.00;;;25.90
12061;BMP180;6091;51.432;6.880;2023-05-07T03:08:48;100835.00;;;25.90
12061;BMP180;6091;51.432;6.880;2023-05-07T03:11:16;100829.00;;;25.90
12061;BMP180;6091;51.432;6.880;2023-05-07T03:13:44;100828.00;;;25.90
12061;BMP180;6091;51.432;6.880;2023-05-07T03:16:12;100832.00;;;25.90
12061;BMP180;6091;51.432;6.880;2023-05-07T03:18:40;100837.00;;;25.90
12061;BMP180;6091;51.432;6.880;2023-05-07T03:21:07;100836.00;;;25.90
12061;BMP180;6091;51.432;6.880;2023-05-07T03:23:34;100844.00;;;25.90
12061;BMP180;6091;51.432;6.880;2023-05-07T03:26:02;100833.00;;;25.90
12061;BMP180;6091;51.432;6.880;2023-05-07T03:28:30;100834.00;;;25.90
12061;BMP180;6091;51.432;6.880;2023-05-07T03:30:57;100834.00;;;25.90
12061;BMP180;6091;51.432;6.880;2023-05-07T03:33:28;100832.00;;;25.90
12061;BMP180;6091;51.432;6.880;2023-05-07T03:35:55;100826.00;;;25.90
12061;BMP180;6091;51.432;6.880;2023-05-07T03:38:23;100824.00;;;25.90
12061;BMP180;6091;51.432;6.880;2023-05-07T03:40:50;100828.00;;;25.90
12061;BMP180;6091;51.432;6.880;2023-05-07T03:43:17;100827.00;;;25.80
12061;BMP180;6091;51.432;6.880;2023-05-07T03:45:48;100830.00;;;25.90
12061;BMP180;6091;51.432;6.880;2023-05-07T03:48:15;100824.00;;;25.80
12061;BMP180;6091;51.432;6.880;2023-05-07T03:50:42;100819.00;;;25.80
12061;BMP180;6091;51.432;6.880;2023-05-07T03:53:10;100823.00;;;25.80
12061;BMP180;6091;51.432;6.880;2023-05-07T03:55:40;100826.00;;;25.80
12061;BMP180;6091;51.432;6.880;2023-05-07T03:58:11;100829.00;;;25.80
12061;BMP180;6091;51.432;6.880;2023-05-07T04:00:38;100825.00;;;25.80
12061;BMP180;6091;51.432;6.880;2023-05-07T04:03:08;100823.00;;;25.80
12061;BMP180;6091;51.432;6.880;2023-05-07T04:05:36;100827.00;;;25.80
12061;BMP180;6091;51.432;6.880;2023-05-07T04:08:03;100834.00;;;25.80
12061;BMP180;6091;51.432;6.880;2023-05-07T04:10:31;100835.00;;;25.80
12061;BMP180;6091;51.432;6.880;2023-05-07T04:12:58;100835.00;;;25.80
12061;BMP180;6091;51.432;6.880;2023-05-07T04:15:25;100838.00;;;25.80
12061;BMP180;6091;51.432;6.880;2023-05-07T04:17:53;100836.00;;;25.80
12061;BMP180;6091;51.432;6.880;2023-05-07T04:20:20;100819.00;;;25.80
12061;BMP180;6091;51.432;6.880;2023-05-07T04:22:50;100844.00;;;25.80
12061;BMP180;6091;51.432;6.880;2023-05-07T04:25:18;100843.00;;;25.80
12061;BMP180;6091;51.432;6.880;2023-05-07T04:27:46;100846.00;;;25.80
12061;BMP180;6091;51.432;6.880;2023-05-07T04:30:13;100827.00;;;25.80
12061;BMP180;6091;51.432;6.880;2023-05-07T04:32:41;100838.00;;;25.80
12061;BMP180;6091;51.432;6.880;2023-05-07T04:35:08;100844.00;;;25.80
12061;BMP180;6091;51.432;6.880;2023-05-07T04:37:36;100847.00;;;25.80
12061;BMP180;6091;51.432;6.880;2023-05-07T04:40:04;100848.00;;;25.80
12061;BMP180;6091;51.432;6.880;2023-05-07T04:42:32;100844.00;;;25.80
12061;BMP180;6091;51.432;6.880;2023-05-07T04:45:00;100844.00;;;25.80
12061;BMP180;6091;51.432;6.880;2023-05-07T04:47:28;100844.00;;;25.80
12061;BMP180;6091;51.432;6.880;2023-05-07T04:49:58;100846.00;;;25.80
12061;BMP180;6091;51.432;6.880;2023-05-07T04:52:26;100851.00;;;25.80
12061;BMP180;6091;51.432;6.880;2023-05-07T04:54:53;100849.00;;;25.80
12061;BMP180;6091;51.432;6.880;2023-05-07T04:57:21;100848.00;;;25.80
12061;BMP180;6091;51.432;6.880;2023-05-07T04:59:48;100856.00;;;25.80
12061;BMP180;6091;51.432;6.880;2023-05-07T05:02:16;100848.00;;;25.80
12061;BMP180;6091;51.432;6.880;2023-05-07T05:04:46;100859.00;;;25.80
12061;BMP180;6091;51.432;6.880;2023-05-07T05:07:14;100854.00;;;25.80
12061;BMP180;6091;51.432;6.880;2023-05-07T05:09:41;100845.00;;;25.80
12061;BMP180;6091;51.432;6.880;2023-05-07T05:12:09;100851.00;;;25.80
12061;BMP180;6091;51.432;6.880;2023-05-07T05:14:39;100858.00;;;25.80
12061;BMP180;6091;51.432;6.880;2023-05-07T05:17:06;100854.00;;;25.80
12061;BMP180;6091;51.432;6.880;2023-05-07T05:19:34;100867.00;;;25.80
12061;BMP180;6091;51.432;6.880;2023-05-07T05:22:01;100867.00;;;25.80
12061;BMP180;6091;51.432;6.880;2023-05-07T05:24:31;100863.00;;;25.80
12061;BMP180;6091;51.432;6.880;2023-05-07T05:26:58;100864.00;;;25.80
12061;BMP180;6091;51.432;6.880;2023-05-07T05:29:32;100863.00;;;25.80
12061;BMP180;6091;51.432;6.880;2023-05-07T05:31:59;100872.00;;;25.80
12061;BMP180;6091;51.432;6.880;2023-05-07T05:34:28;100867.00;;;25.80
12061;BMP180;6091;51.432;6.880;2023-05-07T05:36:56;100869.00;;;25.90
12061;BMP180;6091;51.432;6.880;2023-05-07T05:39:23;100869.00;;;25.90
12061;BMP180;6091;51.432;6.880;2023-05-07T05:41:51;100864.00;;;25.90
12061;BMP180;6091;51.432;6.880;2023-05-07T05:44:18;100865.00;;;25.90
12061;BMP180;6091;51.432;6.880;2023-05-07T05:46:45;100867.00;;;25.90
12061;BMP180;6091;51.432;6.880;2023-05-07T05:49:13;100877.00;;;25.90
12061;BMP180;6091;51.432;6.880;2023-05-07T05:51:41;100875.00;;;25.90
12061;BMP180;6091;51.432;6.880;2023-05-07T05:54:08;100868.00;;;25.90
12061;BMP180;6091;51.432;6.880;2023-05-07T05:56:37;100883.00;;;25.90
12061;BMP180;6091;51.432;6.880;2023-05-07T05:59:06;100861.00;;;25.90
12061;BMP180;6091;51.432;6.880;2023-05-07T06:01:33;100873.00;;;25.90
12061;BMP180;6091;51.432;6.880;2023-05-07T06:04:01;100875.00;;;25.90
12061;BMP180;6091;51.432;6.880;2023-05-07T06:06:28;100872.00;;;25.90
12061;BMP180;6091;51.432;6.880;2023-05-07T06:08:57;100887.00;;;26.00
12061;BMP180;6091;51.432;6.880;2023-05-07T06:11:25;100881.00;;;26.00
12061;BMP180;6091;51.432;6.880;2023-05-07T06:13:54;100883.00;;;26.00
12061;BMP180;6091;51.432;6.880;2023-05-07T06:16:22;100878.00;;;26.00
12061;BMP180;6091;51.432;6.880;2023-05-07T06:18:49;100884.00;;;26.00
12061;BMP180;6091;51.432;6.880;2023-05-07T06:21:17;100889.00;;;26.00
12061;BMP180;6091;51.432;6.880;2023-05-07T06:23:45;100892.00;;;26.00
12061;BMP180;6091;51.432;6.880;2023-05-07T06:26:12;100895.00;;;26.00
12061;BMP180;6091;51.432;6.880;2023-05-07T06:28:39;100888.00;;;26.00
12061;BMP180;6091;51.432;6.880;2023-05-07T06:31:18;100887.00;;;26.10
12061;BMP180;6091;51.432;6.880;2023-05-07T06:33:49;100888.00;;;26.00
12061;BMP180;6091;51.432;6.880;2023-05-07T06:36:18;100888.00;;;26.10
12061;BMP180;6091;51.432;6.880;2023-05-07T06:38:45;100893.00;;;26.10
12061;BMP180;6091;51.432;6.880;2023-05-07T06:41:13;100904.00;;;26.10
12061;BMP180;6091;51.432;6.880;2023-05-07T06:43:40;100897.00;;;26.10
12061;BMP180;6091;51.432;6.880;2023-05-07T06:46:11;100902.00;;;26.10
12061;BMP180;6091;51.432;6.880;2023-05-07T06:48:38;100898.00;;;26.10
12061;BMP180;6091;51.432;6.880;2023-05-07T06:51:06;100891.00;;;26.10
12061;BMP180;6091;51.432;6.880;2023-05-07T06:53:35;100894.00;;;26.10
12061;BMP180;6091;51.432;6.880;2023-05-07T06:56:02;100901.00;;;26.10
12061;BMP180;6091;51.432;6.880;2023-05-07T06:58:30;100898.00;;;26.10
12061;BMP180;6091;51.432;6.880;2023-05-07T07:00:57;100901.00;;;26.10
12061;BMP180;6091;51.432;6.880;2023-05-07T07:03:27;100895.00;;;26.10
12061;BMP180;6091;51.432;6.880;2023-05-07T07:05:55;100892.00;;;26.20
12061;BMP180;6091;51.432;6.880;2023-05-07T07:08:22;100899.00;;;26.20
12061;BMP180;6091;51.432;6.880;2023-05-07T07:10:50;100896.00;;;26.20
12061;BMP180;6091;51.432;6.880;2023-05-07T07:13:17;100902.00;;;26.20
12061;BMP180;6091;51.432;6.880;2023-05-07T07:15:48;100896.00;;;26.20
12061;BMP180;6091;51.432;6.880;2023-05-07T07:18:15;100893.00;;;26.20
12061;BMP180;6091;51.432;6.880;2023-05-07T07:20:44;100903.00;;;26.20
12061;BMP180;6091;51.432;6.880;2023-05-07T07:23:11;100905.00;;;26.20
12061;BMP180;6091;51.432;6.880;2023-05-07T07:25:39;100901.00;;;26.20
12061;BMP180;6091;51.432;6.880;2023-05-07T07:28:07;100899.00;;;26.20
12061;BMP180;6091;51.432;6.880;2023-05-07T07:30:34;100905.00;;;26.30
12061;BMP180;6091;51.432;6.880;2023-05-07T07:33:04;100896.00;;;26.30
12061;BMP180;6091;51.432;6.880;2023-05-07T07:35:32;100896.00;;;26.30
12061;BMP180;6091;51.432;6.880;2023-05-07T07:38:03;100907.00;;;26.40
12061;BMP180;6091;51.432;6.880;2023-05-07T07:40:31;100901.00;;;26.30
12061;BMP180;6091;51.432;6.880;2023-05-07T07:42:59;100914.00;;;26.40
12061;BMP180;6091;51.432;6.880;2023-05-07T07:45:28;100918.00;;;26.40
12061;BMP180;6091;51.432;6.880;2023-05-07T07:47:56;100919.00;;;26.40
12061;BMP180;6091;51.432;6.880;2023-05-07T07:50:23;100926.00;;;26.40
12061;BMP180;6091;51.432;6.880;2023-05-07T07:53:09;100925.00;;;26.40
12061;BMP180;6091;51.432;6.880;2023-05-07T07:55:41;100920.00;;;26.40
12061;BMP180;6091;51.432;6.880;2023-05-07T07:58:11;100918.00;;;26.40
12061;BMP180;6091;51.432;6.880;2023-05-07T08:00:39;100915.00;;;26.40
12061;BMP180;6091;51.432;6.880;2023-05-07T08:03:09;100915.00;;;26.50
12061;BMP180;6091;51.432;6.880;2023-05-07T08:05:37;100921.00;;;26.50
12061;BMP180;6091;51.432;6.880;2023-05-07T08:08:05;100923.00;;;26.50
12061;BMP180;6091;51.432;6.880;2023-05-07T08:10:33;100923.00;;;26.50
12061;BMP180;6091;51.432;6.880;2023-05-07T08:13:02;100919.00;;;26.60
12061;BMP180;6091;51.432;6.880;2023-05-07T08:15:31;100932.00;;;26.60
12061;BMP180;6091;51.432;6.880;2023-05-07T08:17:59;100922.00;;;26.60
12061;BMP180;6091;51.432;6.880;2023-05-07T08:20:28;100928.00;;;26.60
12061;BMP180;6091;51.432;6.880;2023-05-07T08:22:56;100924.00;;;26.60
12061;BMP180;6091;51.432;6.880;2023-05-07T08:25:24;100931.00;;;26.70
12061;BMP180;6091;51.432;6.880;2023-05-07T08:27:51;100934.00;;;26.70
12061;BMP180;6091;51.432;6.880;2023-05-07T08:30:21;100936.00;;;26.70
12061;BMP180;6091;51.432;6.880;2023-05-07T08:32:48;100934.00;;;26.70
12061;BMP180;6091;51.432;6.880;2023-05-07T08:35:16;100920.00;;;26.80
12061;BMP180;6091;51.432;6.880;2023-05-07T08:37:43;100927.00;;;26.80
12061;BMP180;6091;51.432;6.880;2023-05-07T08:40:11;100928.00;;;26.80
12061;BMP180;6091;51.432;6.880;2023-05-07T08:42:41;100931.00;;;26.80
12061;BMP180;6091;51.432;6.880;2023-05-07T08:45:11;100931.00;;;26.80
12061;BMP180;6091;51.432;6.880;2023-05-07T08:47:47;100925.00;;;26.80
12061;BMP180;6091;51.432;6.880;2023-05-07T08:50:20;100926.00;;;26.80
12061;BMP180;6091;51.432;6.880;2023-05-07T08:52:48;100916.00;;;26.90
12061;BMP180;6091;51.432;6.880;2023-05-07T08:55:16;100920.00;;;26.90
12061;BMP180;6091;51.432;6.880;2023-05-07T08:57:44;100916.00;;;26.90
12061;BMP180;6091;51.432;6.880;2023-05-07T09:00:12;100920.00;;;26.90
12061;BMP180;6091;51.432;6.880;2023-05-07T09:02:40;100923.00;;;26.90
12061;BMP180;6091;51.432;6.880;2023-05-07T09:05:08;100919.00;;;26.90
12061;BMP180;6091;51.432;6.880;2023-05-07T09:07:36;100922.00;;;27.00
12061;BMP180;6091;51.432;6.880;2023-05-07T09:10:04;100926.00;;;27.00
12061;BMP180;6091;51.432;6.880;2023-05-07T09:12:32;100925.00;;;27.00
12061;BMP180;6091;51.432;6.880;2023-05-07T09:15:02;100919.00;;;27.00
12061;BMP180;6091;51.432;6.880;2023-05-07T09:17:30;100921.00;;;27.00
12061;BMP180;6091;51.432;6.880;2023-05-07T09:20:06;100911.00;;;27.00
12061;BMP180;6091;51.432;6.880;2023-05-07T09:22:38;100922.00;;;27.00
12061;BMP180;6091;51.432;6.880;2023-05-07T09:25:08;100914.00;;;27.10
12061;BMP180;6091;51.432;6.880;2023-05-07T09:27:38;100915.00;;;27.10
12061;BMP180;6091;51.432;6.880;2023-05-07T09:30:07;100916.00;;;27.10
12061;BMP180;6091;51.432;6.880;2023-05-07T09:32:37;100914.00;;;27.10
12061;BMP180;6091;51.432;6.880;2023-05-07T09:35:14;100908.00;;;27.10
12061;BMP180;6091;51.432;6.880;2023-05-07T09:37:42;100912.00;;;27.10
12061;BMP180;6091;51.432;6.880;2023-05-07T09:40:30;100916.00;;;27.20
12061;BMP180;6091;51.432;6.880;2023-05-07T09:43:13;100918.00;;;27.20
12061;BMP180;6091;51.432;6.880;2023-05-07T09:45:41;100918.00;;;27.20
12061;BMP180;6091;51.432;6.880;2023-05-07T09:48:10;100916.00;;;27.30
12061;BMP180;6091;51.432;6.880;2023-05-07T09:50:51;100917.00;;;27.30
12061;BMP180;6091;51.432;6.880;2023-05-07T09:53:22;100919.00;;;27.30
12061;BMP180;6091;51.432;6.880;2023-05-07T09:55:51;100918.00;;;27.40
12061;BMP180;6091;51.432;6.880;2023-05-07T09:58:22;100910.00;;;27.40
12061;BMP180;6091;51.432;6.880;2023-05-07T10:00:54;100910.00;;;27.40
12061;BMP180;6091;51.432;6.880;2023-05-07T10:03:27;100919.00;;;27.50
12061;BMP180;6091;51.432;6.880;2023-05-07T10:05:58;100915.00;;;27.50
12061;BMP180;6091;51.432;6.880;2023-05-07T10:08:26;100920.00;;;27.50
12061;BMP180;6091;51.432;6.880;2023-05-07T10:10:53;100909.00;;;27.60
12061;BMP180;6091;51.432;6.880;2023-05-07T10:13:21;100920.00;;;27.60
12061;BMP180;6091;51.432;6.880;2023-05-07T10:15:50;100923.00;;;27.60
12061;BMP180;6091;51.432;6.880;2023-05-07T10:18:19;100912.00;;;27.70
12061;BMP180;6091;51.432;6.880;2023-05-07T10:20:52;100911.00;;;27.70
12061;BMP180;6091;51.432;6.880;2023-05-07T10:23:24;100916.00;;;27.70
12061;BMP180;6091;51.432;6.880;2023-05-07T10:25:53;100915.00;;;27.80
12061;BMP180;6091;51.432;6.880;2023-05-07T10:28:29;100910.00;;;27.80
12061;BMP180;6091;51.432;6.880;2023-05-07T10:33:59;100919.00;;;27.80
12061;BMP180;6091;51.432;6.880;2023-05-07T10:36:29;100918.00;;;27.80
12061;BMP180;6091;51.432;6.880;2023-05-07T10:38:59;100912.00;;;27.80
12061;BMP180;6091;51.432;6.880;2023-05-07T10:41:26;100919.00;;;27.90
12061;BMP180;6091;51.432;6.880;2023-05-07T10:43:54;100919.00;;;27.80
12061;BMP180;6091;51.432;6.880;2023-05-07T10:46:24;100920.00;;;27.80
12061;BMP180;6091;51.432;6.880;2023-05-07T10:51:35;100910.00;;;27.80
12061;BMP180;6091;51.432;6.880;2023-05-07T10:56:42;100918.00;;;27.80
12061;BMP180;6091;51.432;6.880;2023-05-07T10:59:31;100916.00;;;27.90
12061;BMP180;6091;51.432;6.880;2023-05-07T11:02:05;100912.00;;;27.90
12061;BMP180;6091;51.432;6.880;2023-05-07T11:04:39;100920.00;;;28.00
12061;BMP180;6091;51.432;6.880;2023-05-07T11:10:02;100915.00;;;28.00
12061;BMP180;6091;51.432;6.880;2023-05-07T11:15:07;100912.00;;;28.10
12061;BMP180;6091;51.432;6.880;2023-05-07T11:17:57;100912.00;;;28.10
12061;BMP180;6091;51.432;6.880;2023-05-07T11:20:58;100904.00;;;28.10
12061;BMP180;6091;51.432;6.880;2023-05-07T11:26:12;100901.00;;;28.10
12061;BMP180;6091;51.432;6.880;2023-05-07T11:28:43;100909.00;;;28.10
12061;BMP180;6091;51.432;6.880;2023-05-07T11:31:11;100896.00;;;28.20
12061;BMP180;6091;51.432;6.880;2023-05-07T11:33:39;100911.00;;;28.20
12061;BMP180;6091;51.432;6.880;2023-05-07T11:36:08;100909.00;;;28.20
12061;BMP180;6091;51.432;6.880;2023-05-07T11:38:38;100897.00;;;28.20
12061;BMP180;6091;51.432;6.880;2023-05-07T11:41:07;100902.00;;;28.20
12061;BMP180;6091;51.432;6.880;2023-05-07T11:43:35;100905.00;;;28.20
12061;BMP180;6091;51.432;6.880;2023-05-07T11:46:11;100902.00;;;28.20
12061;BMP180;6091;51.432;6.880;2023-05-07T11:48:39;100905.00;;;28.10
12061;BMP180;6091;51.432;6.880;2023-05-07T11:51:08;100905.00;;;28.20
12061;BMP180;6091;51.432;6.880;2023-05-07T11:53:42;100908.00;;;28.10
12061;BMP180;6091;51.432;6.880;2023-05-07T11:56:16;100911.00;;;28.10
12061;BMP180;6091;51.432;6.880;2023-05-07T11:58:47;100909.00;;;28.10
12061;BMP180;6091;51.432;6.880;2023-05-07T12:01:15;100914.00;;;28.10
12061;BMP180;6091;51.432;6.880;2023-05-07T12:03:44;100915.00;;;28.10
12061;BMP180;6091;51.432;6.880;2023-05-07T12:06:16;100915.00;;;28.10
12061;BMP180;6091;51.432;6.880;2023-05-07T12:08:45;100915.00;;;28.00
12061;BMP180;6091;51.432;6.880;2023-05-07T12:11:22;100919.00;;;28.00
12061;BMP180;6091;51.432;6.880;2023-05-07T12:13:51;100913.00;;;28.00
12061;BMP180;6091;51.432;6.880;2023-05-07T12:16:19;100913.00;;;28.00
12061;BMP180;6091;51.432;6.880;2023-05-07T12:18:50;100915.00;;;27.90
12061;BMP180;6091;51.432;6.880;2023-05-07T12:21:20;100910.00;;;27.90
12061;BMP180;6091;51.432;6.880;2023-05-07T12:23:48;100916.00;;;27.90
12061;BMP180;6091;51.432;6.880;2023-05-07T12:26:19;100918.00;;;27.80
12061;BMP180;6091;51.432;6.880;2023-05-07T12:28:48;100917.00;;;27.80
12061;BMP180;6091;51.432;6.880;2023-05-07T12:31:15;100918.00;;;27.80
12061;BMP180;6091;51.432;6.880;2023-05-07T12:33:45;100913.00;;;27.70
12061;BMP180;6091;51.432;6.880;2023-05-07T12:36:13;100915.00;;;27.70
12061;BMP180;6091;51.432;6.880;2023-05-07T12:38:41;100919.00;;;27.60
12061;BMP180;6091;51.432;6.880;2023-05-07T12:41:10;100916.00;;;27.60
12061;BMP180;6091;51.432;6.880;2023-05-07T12:43:39;100915.00;;;27.60
12061;BMP180;6091;51.432;6.880;2023-05-07T12:46:10;100911.00;;;27.60
12061;BMP180;6091;51.432;6.880;2023-05-07T12:48:38;100923.00;;;27.50
12061;BMP180;6091;51.432;6.880;2023-05-07T12:51:10;100923.00;;;27.50
12061;BMP180;6091;51.432;6.880;2023-05-07T12:53:41;100920.00;;;27.50
12061;BMP180;6091;51.432;6.880;2023-05-07T12:56:11;100925.00;;;27.50
12061;BMP180;6091;51.432;6.880;2023-05-07T12:58:40;100940.00;;;27.50
12061;BMP180;6091;51.432;6.880;2023-05-07T13:01:08;100932.00;;;27.40
12061;BMP180;6091;51.432;6.880;2023-05-07T13:03:40;100932.00;;;27.40
12061;BMP180;6091;51.432;6.880;2023-05-07T13:06:12;100941.00;;;27.40
12061;BMP180;6091;51.432;6.880;2023-05-07T13:08:41;100939.00;;;27.40
12061;BMP180;6091;51.432;6.880;2023-05-07T13:11:13;100942.00;;;27.30
12061;BMP180;6091;51.432;6.880;2023-05-07T13:13:41;100935.00;;;27.30
12061;BMP180;6091;51.432;6.880;2023-05-07T13:16:11;100958.00;;;27.30
12061;BMP180;6091;51.432;6.880;2023-05-07T13:18:40;100943.00;;;27.30
12061;BMP180;6091;51.432;6.880;2023-05-07T13:21:11;100967.00;;;27.30
12061;BMP180;6091;51.432;6.880;2023-05-07T13:23:41;100964.00;;;27.20
12061;BMP180;6091;51.432;6.880;2023-05-07T13:26:09;100978.00;;;27.20
12061;BMP180;6091;51.432;6.880;2023-05-07T13:28:55;100975.00;;;27.20
12061;BMP180;6091;51.432;6.880;2023-05-07T13:31:26;100968.00;;;27.20
12061;BMP180;6091;51.432;6.880;2023-05-07T13:33:54;100978.00;;;27.20
12061;BMP180;6091;51.432;6.880;2023-05-07T13:36:25;100975.00;;;27.20
12061;BMP180;6091;51.432;6.880;2023-05-07T13:38:54;100970.00;;;27.10
12061;BMP180;6091;51.432;6.880;2023-05-07T13:41:21;100974.00;;;27.10
12061;BMP180;6091;51.432;6.880;2023-05-07T13:43:48;100967.00;;;27.10
12061;BMP180;6091;51.432;6.880;2023-05-07T13:46:17;100974.00;;;27.10
12061;BMP180;6091;51.432;6.880;2023-05-07T13:48:46;100966.00;;;27.10
12061;BMP180;6091;51.432;6.880;2023-05-07T13:51:14;100963.00;;;27.10
12061;BMP180;6091;51.432;6.880;2023-05-07T13:53:41;100963.00;;;27.10
12061;BMP180;6091;51.432;6.880;2023-05-07T13:56:09;100958.00;;;27.10
12061;BMP180;6091;51.432;6.880;2023-05-07T13:58:36;100973.00;;;27.10
12061;BMP180;6091;51.432;6.880;2023-05-07T14:01:14;100974.00;;;27.10
12061;BMP180;6091;51.432;6.880;2023-05-07T14:03:42;100970.00;;;27.10
12061;BMP180;6091;51.432;6.880;2023-05-07T14:06:10;100971.00;;;27.10
12061;BMP180;6091;51.432;6.880;2023-05-07T14:08:40;100976.00;;;27.10
12061;BMP180;6091;51.432;6.880;2023-05-07T14:11:07;100975.00;;;27.10
12061;BMP180;6091;51.432;6.880;2023-05-07T14:13:35;100970.00;;;27.00
12061;BMP180;6091;51.432;6.880;2023-05-07T14:16:07;100976.00;;;27.10
12061;BMP180;6091;51.432;6.880;2023-05-07T14:18:35;100979.00;;;27.00
12061;BMP180;6091;51.432;6.880;2023-05-07T14:21:05;100976.00;;;27.00
12061;BMP180;6091;51.432;6.880;2023-05-07T14:23:37;100982.00;;;27.00
12061;BMP180;6091;51.432;6.880;2023-05-07T14:26:05;100976.00;;;27.00
12061;BMP180;6091;51.432;6.880;2023-05-07T14:28:33;100984.00;;;27.00
12061;BMP180;6091;51.432;6.880;2023-05-07T14:31:00;100980.00;;;27.00
12061;BMP180;6091;51.432;6.880;2023-05-07T14:33:28;100984.00;;;27.00
12061;BMP180;6091;51.432;6.880;2023-05-07T14:35:55;100985.00;;;27.00
12061;BMP180;6091;51.432;6.880;2023-05-07T14:38:23;100987.00;;;27.00